Time;durP1;ratioP1;P1;durP2;ratioP2;P2;SDS_P1;SDS_P2;PMS_P1;PMS_P2;Temp;Humidity;BMP_temperature;BMP_pressure;BME280_temperature;BME280_humidity;BME280_pressure;Samples;Min_cycle;Max_cycle;Signal;HPM_P1;HPM_P2
2022/05/09 00:00:16;;;;;;;11.43;6.35;;;13.30;99.90;;;;;;4999188;28;20034;-68
2022/05/09 00:02:42;;;;;;;15.45;6.80;;;13.30;99.90;;;;;;4993964;28;20046;-67
2022/05/09 00:05:13;;;;;;;12.68;6.53;;;13.30;99.90;;;;;;4994272;28;20392;-70
2022/05/09 00:07:39;;;;;;;14.77;6.57;;;13.20;99.90;;;;;;4997460;28;20077;-66
2022/05/09 00:10:05;;;;;;;11.20;6.03;;;13.10;99.90;;;;;;4992587;28;20353;-67
2022/05/09 00:12:32;;;;;;;12.38;6.45;;;13.00;99.90;;;;;;5005338;28;20061;-67
2022/05/09 00:14:58;;;;;;;13.48;6.95;;;13.10;99.90;;;;;;5011373;28;20069;-68
2022/05/09 00:17:23;;;;;;;14.32;6.40;;;12.90;99.90;;;;;;5004950;28;20770;-70
2022/05/09 00:19:49;;;;;;;13.25;6.38;;;13.00;99.90;;;;;;5001336;28;20026;-70
2022/05/09 00:22:18;;;;;;;14.02;6.45;;;12.80;99.90;;;;;;4991488;28;20152;-68
2022/05/09 00:24:44;;;;;;;11.23;6.70;;;12.80;99.90;;;;;;4994451;28;20401;-71
2022/05/09 00:27:10;;;;;;;11.38;6.28;;;12.80;99.90;;;;;;4990496;28;20030;-68
2022/05/09 00:29:36;;;;;;;12.82;6.85;;;12.80;99.90;;;;;;4990412;28;20023;-70
2022/05/09 00:32:02;;;;;;;13.85;7.78;;;12.80;99.90;;;;;;4990726;28;20081;-70
2022/05/09 00:34:28;;;;;;;11.38;6.38;;;12.80;99.90;;;;;;4990572;28;20015;-70
2022/05/09 00:36:55;;;;;;;13.10;7.25;;;12.80;99.90;;;;;;4991894;28;20045;-70
2022/05/09 00:39:21;;;;;;;14.15;7.03;;;12.80;99.90;;;;;;4990346;28;20112;-71
2022/05/09 00:41:48;;;;;;;10.93;6.28;;;12.90;99.90;;;;;;4990618;28;20042;-69
2022/05/09 00:44:20;;;;;;;12.35;6.70;;;12.90;99.90;;;;;;4990430;28;20045;-70
2022/05/09 00:46:47;;;;;;;;;;;12.90;99.90;;;;;;4996633;28;20042;-66
2022/05/09 00:49:36;;;;;;;12.15;6.10;;;12.90;99.90;;;;;;4990271;28;19910;-70
2022/05/09 00:52:13;;;;;;;11.65;6.43;;;12.90;99.90;;;;;;4990183;28;20039;-70
2022/05/09 00:54:49;;;;;;;11.60;6.05;;;13.00;99.90;;;;;;4990320;28;20022;-71
2022/05/09 00:57:23;;;;;;;11.32;6.43;;;13.00;99.90;;;;;;4989964;28;20457;-70
2022/05/09 00:59:52;;;;;;;10.20;5.82;;;13.00;99.90;;;;;;4989623;28;20027;-69
2022/05/09 01:02:19;;;;;;;9.27;5.95;;;13.00;99.90;;;;;;4989899;28;20077;-65
2022/05/09 01:04:54;;;;;;;12.48;5.90;;;13.00;99.90;;;;;;4989985;28;20113;-68
2022/05/09 01:07:22;;;;;;;14.80;6.50;;;12.90;99.90;;;;;;4989967;28;20026;-71
2022/05/09 01:09:48;;;;;;;14.73;6.90;;;12.90;99.90;;;;;;4990054;28;20034;-68
2022/05/09 01:12:20;;;;;;;9.27;5.43;;;12.90;99.90;;;;;;4990235;28;20022;-69
2022/05/09 01:14:46;;;;;;;18.07;6.40;;;13.00;99.90;;;;;;4993015;28;20035;-70
2022/05/09 01:17:13;;;;;;;11.75;6.25;;;12.90;99.90;;;;;;4989891;28;20032;-70
2022/05/09 01:19:42;;;;;;;14.45;6.00;;;12.90;99.90;;;;;;4989864;28;20029;-71
2022/05/09 01:22:26;;;;;;;12.60;6.57;;;12.80;99.90;;;;;;4989704;28;20073;-70
2022/05/09 01:24:54;;;;;;;15.32;6.95;;;12.80;99.90;;;;;;4989961;28;20053;-71
2022/05/09 01:27:20;;;;;;;13.15;7.32;;;12.70;99.90;;;;;;4990151;28;20026;-70
2022/05/09 01:30:06;;;;;;;10.98;6.15;;;12.60;99.90;;;;;;4992276;28;20026;-71
2022/05/09 01:32:39;;;;;;;14.98;6.90;;;12.60;99.90;;;;;;5009805;28;20104;-69
2022/05/09 01:35:12;;;;;;;11.27;6.38;;;12.50;99.90;;;;;;5010922;28;20026;-71
2022/05/09 01:37:42;;;;;;;12.98;5.47;;;12.40;99.90;;;;;;5013210;28;20113;-70
2022/05/09 01:40:08;;;;;;;13.05;6.75;;;12.40;99.90;;;;;;5030495;28;20100;-70
2022/05/09 01:42:35;;;;;;;11.45;6.05;;;12.30;99.90;;;;;;5030510;28;20049;-71
2022/05/09 01:45:02;;;;;;;11.75;5.40;;;12.30;99.90;;;;;;5030456;28;20082;-71
2022/05/09 01:50:17;;;;;;;10.43;6.10;;;12.30;99.90;;;;;;5024369;28;20388;-71
2022/05/09 01:52:44;;;;;;;13.82;6.25;;;12.30;99.90;;;;;;5010332;28;20045;-68
2022/05/09 01:55:10;;;;;;;12.27;6.53;;;12.20;99.90;;;;;;4993359;28;20026;-70
2022/05/09 01:57:36;;;;;;;13.98;6.15;;;12.20;99.90;;;;;;5010394;28;20065;-71
2022/05/09 02:00:07;;;;;;;11.02;6.22;;;12.10;99.90;;;;;;5010455;28;20046;-71
2022/05/09 02:02:40;;;;;;;11.85;6.40;;;12.00;99.90;;;;;;5011276;28;20121;-71
2022/05/09 02:05:06;;;;;;;10.23;5.75;;;12.00;99.90;;;;;;4993480;28;20037;-71
2022/05/09 02:07:32;;;;;;;9.55;5.75;;;11.90;99.90;;;;;;5010492;28;20050;-69
2022/05/09 02:09:58;;;;;;;14.05;6.75;;;11.90;99.90;;;;;;5010833;28;20065;-71
2022/05/09 02:12:24;;;;;;;15.25;6.70;;;11.80;99.90;;;;;;5013726;28;20072;-69
2022/05/09 02:14:52;;;;;;;15.35;7.45;;;11.80;99.90;;;;;;5014298;28;20533;-72
2022/05/09 02:17:18;;;;;;;14.82;6.13;;;11.70;99.90;;;;;;5014276;28;20085;-71
2022/05/09 02:19:44;;;;;;;11.43;6.43;;;11.70;99.90;;;;;;5013806;28;20034;-70
2022/05/09 02:22:11;;;;;;;16.25;7.15;;;11.70;99.90;;;;;;5014145;28;20025;-70
2022/05/09 02:24:41;;;;;;;12.95;7.18;;;11.70;99.90;;;;;;5013872;28;20103;-71
2022/05/09 02:27:09;;;;;;;16.08;6.60;;;11.70;99.90;;;;;;5013789;28;20026;-64
2022/05/09 02:29:37;;;;;;;12.38;6.53;;;11.60;99.90;;;;;;5013811;28;20091;-71
2022/05/09 02:32:05;;;;;;;13.43;7.18;;;11.60;99.90;;;;;;5013943;28;20042;-71
2022/05/09 02:34:31;;;;;;;12.60;6.32;;;11.50;99.90;;;;;;5013593;28;20247;-71
2022/05/09 02:36:57;;;;;;;16.10;7.25;;;11.50;99.90;;;;;;5013606;28;20519;-68
2022/05/09 02:39:23;;;;;;;13.43;6.05;;;11.40;99.90;;;;;;5013945;28;20049;-71
2022/05/09 02:41:49;;;;;;;15.75;6.82;;;11.40;99.90;;;;;;5014041;28;20352;-72
2022/05/09 02:44:15;;;;;;;12.25;6.20;;;11.50;99.90;;;;;;5013214;28;20034;-69
2022/05/09 02:46:42;;;;;;;15.68;6.88;;;11.40;99.90;;;;;;5013145;28;20084;-72
2022/05/09 02:49:08;;;;;;;13.30;6.22;;;11.50;99.90;;;;;;5013602;28;20057;-70
2022/05/09 02:51:35;;;;;;;9.48;5.72;;;11.40;99.90;;;;;;5013566;28;20026;-70
2022/05/09 02:54:01;;;;;;;10.82;6.28;;;11.40;99.90;;;;;;5013412;28;20034;-71
2022/05/09 02:56:27;;;;;;;16.10;8.48;;;11.40;99.90;;;;;;5013662;28;20088;-70
2022/05/09 02:58:53;;;;;;;14.43;7.28;;;11.30;99.90;;;;;;5012331;28;20044;-70
2022/05/09 03:01:19;;;;;;;17.45;7.97;;;11.30;99.90;;;;;;5009417;28;20033;-72
2022/05/09 03:06:31;;;;;;;13.75;7.85;;;11.10;99.90;;;;;;5013454;28;20025;-70
2022/05/09 03:08:57;;;;;;;15.85;8.25;;;11.10;99.90;;;;;;5013209;28;20144;-64
2022/05/09 03:11:23;;;;;;;16.20;8.25;;;11.10;99.90;;;;;;5012726;28;20128;-69
2022/05/09 03:13:50;;;;;;;16.08;8.25;;;11.10;99.90;;;;;;5013246;28;20435;-69
2022/05/09 03:16:16;;;;;;;17.27;9.05;;;10.90;99.90;;;;;;5012846;28;20026;-68
2022/05/09 03:18:41;;;;;;;14.65;8.63;;;10.90;99.90;;;;;;5027571;28;20021;-62
2022/05/09 03:21:07;;;;;;;14.88;8.70;;;10.90;99.90;;;;;;5032793;28;20467;-69
2022/05/09 03:23:33;;;;;;;13.93;8.48;;;10.90;99.90;;;;;;5028845;28;20080;-68
2022/05/09 03:26:00;;;;;;;19.73;9.30;;;10.90;99.90;;;;;;5012210;28;20022;-69
2022/05/09 03:28:28;;;;;;;16.30;8.48;;;11.00;99.90;;;;;;5012759;28;20041;-66
2022/05/09 03:30:57;;;;;;;18.83;9.55;;;11.00;99.90;;;;;;5013080;28;20472;-68
2022/05/09 03:33:27;;;;;;;17.10;9.10;;;11.20;99.90;;;;;;5013815;28;20026;-68
2022/05/09 03:35:56;;;;;;;24.33;10.10;;;11.20;99.90;;;;;;5012728;28;20048;-70
2022/05/09 03:38:22;;;;;;;15.90;9.30;;;11.30;99.90;;;;;;5013851;28;20038;-68
2022/05/09 03:40:48;;;;;;;17.65;9.52;;;11.50;99.90;;;;;;5012108;28;20060;-69
2022/05/09 03:43:14;;;;;;;17.17;9.48;;;11.50;99.90;;;;;;5012447;28;20065;-69
2022/05/09 03:45:42;;;;;;;17.88;10.95;;;11.70;99.90;;;;;;5012302;28;20061;-69
2022/05/09 03:48:09;;;;;;;17.35;9.40;;;11.90;99.90;;;;;;5012383;28;20029;-70
2022/05/09 03:50:35;;;;;;;16.58;9.70;;;12.20;99.90;;;;;;5017418;28;20032;-69
2022/05/09 03:53:01;;;;;;;18.10;8.18;;;12.60;99.90;;;;;;5022636;28;20178;-69
2022/05/09 03:55:27;;;;;;;17.73;7.80;;;12.90;99.90;;;;;;5011682;28;20113;-68
2022/05/09 03:57:55;;;;;;;12.95;7.53;;;13.40;99.90;;;;;;5011737;28;20113;-70
2022/05/09 04:00:25;;;;;;;15.38;7.93;;;13.90;99.90;;;;;;5011626;28;20068;-69
2022/05/09 04:02:51;;;;;;;16.17;7.38;;;14.00;99.90;;;;;;4999590;28;20113;-69
2022/05/09 04:05:17;;;;;;;17.00;8.95;;;14.50;99.90;;;;;;5012789;28;20534;-71
2022/05/09 04:07:52;;;;;;;16.90;8.07;;;15.00;99.90;;;;;;5012761;28;20022;-69
2022/05/09 04:10:22;;;;;;;13.02;8.13;;;15.20;99.90;;;;;;5012235;28;20030;-69
2022/05/09 04:12:48;;;;;;;13.18;8.02;;;15.50;99.90;;;;;;5012001;28;20100;-70
2022/05/09 04:17:59;;;;;;;11.75;7.60;;;16.30;99.90;;;;;;5018762;28;20471;-67
2022/05/09 04:20:27;;;;;;;13.85;7.28;;;16.70;99.90;;;;;;5007635;28;20026;-70
2022/05/09 04:22:54;;;;;;;12.15;7.47;;;17.20;99.90;;;;;;5003819;28;20062;-64
2022/05/09 04:25:22;;;;;;;13.48;7.78;;;17.50;99.90;;;;;;5011786;28;20029;-70
2022/05/09 04:27:48;;;;;;;15.82;7.40;;;17.90;99.90;;;;;;5011676;28;20030;-70
2022/05/09 04:30:14;;;;;;;13.20;7.32;;;18.50;99.10;;;;;;5011999;28;20034;-68
2022/05/09 04:32:40;;;;;;;11.38;7.35;;;18.50;98.00;;;;;;5012113;28;20160;-68
2022/05/09 04:35:21;;;;;;;13.57;7.95;;;18.50;97.90;;;;;;5011585;28;20025;-68
2022/05/09 04:37:53;;;;;;;14.73;8.13;;;18.70;97.90;;;;;;5011451;28;20026;-68
2022/05/09 04:40:27;;;;;;;16.33;7.57;;;18.90;96.40;;;;;;5011824;28;20380;-68
2022/05/09 04:42:53;;;;;;;11.57;7.28;;;18.90;96.40;;;;;;5011769;28;20030;-68
2022/05/09 04:45:19;;;;;;;13.65;8.00;;;19.20;95.70;;;;;;5012158;28;20353;-68
2022/05/09 04:47:46;;;;;;;13.98;8.10;;;19.40;94.90;;;;;;5011334;28;20033;-68
2022/05/09 04:50:14;;;;;;;15.13;7.65;;;19.40;95.20;;;;;;5012019;28;20033;-67
2022/05/09 04:52:40;;;;;;;13.25;7.97;;;19.50;95.70;;;;;;5011955;28;20041;-67
2022/05/09 04:55:07;;;;;;;14.98;8.63;;;19.70;94.30;;;;;;5010960;28;20113;-67
2022/05/09 04:57:33;;;;;;;15.02;8.20;;;19.80;92.70;;;;;;5012952;28;20077;-68
2022/05/09 04:59:59;;;;;;;16.80;8.35;;;19.30;94.90;;;;;;5011392;28;20022;-67
2022/05/09 05:02:25;;;;;;;13.07;7.95;;;18.90;95.20;;;;;;5011638;28;20554;-68
2022/05/09 05:04:51;;;;;;;17.92;8.60;;;18.50;97.70;;;;;;5015345;28;20062;-68
2022/05/09 05:07:17;;;;;;;13.93;7.70;;;18.10;99.40;;;;;;5011426;28;20072;-67
2022/05/09 05:09:43;;;;;;;16.73;8.25;;;17.40;99.90;;;;;;5011560;28;20026;-68
2022/05/09 05:12:09;;;;;;;12.57;7.30;;;17.50;99.90;;;;;;5011310;28;20503;-67
2022/05/09 05:14:51;;;;;;;15.95;8.43;;;17.40;99.90;;;;;;5011136;28;20030;-63
2022/05/09 05:17:18;;;;;;;16.92;7.65;;;17.60;99.90;;;;;;5013156;28;20496;-68
2022/05/09 05:19:44;;;;;;;13.90;7.45;;;17.50;99.90;;;;;;5031208;28;20033;-68
2022/05/09 05:22:14;;;;;;;14.30;7.25;;;17.50;99.90;;;;;;5031705;28;20029;-68
2022/05/09 05:24:44;;;;;;;16.98;7.82;;;17.60;99.90;;;;;;5030880;28;20064;-68
2022/05/09 05:27:12;;;;;;;14.00;8.05;;;17.50;99.90;;;;;;5031077;28;20072;-68
2022/05/09 05:29:38;;;;;;;13.02;7.60;;;17.30;99.90;;;;;;5013893;28;20025;-68
2022/05/09 05:32:21;;;;;;;14.88;6.70;;;17.20;99.90;;;;;;5030927;28;20033;-68
2022/05/09 05:34:48;;;;;;;;;;;17.20;99.90;;;;;;5029186;28;20100;-68
2022/05/09 05:37:15;;;;;;;12.40;6.97;;;17.10;99.90;;;;;;5010929;28;19910;-67
2022/05/09 05:39:42;;;;;;;13.63;6.82;;;17.00;99.90;;;;;;5011331;28;20040;-66
2022/05/09 05:42:09;;;;;;;15.45;7.90;;;17.40;99.90;;;;;;5010996;28;20030;-68
2022/05/09 05:44:37;;;;;;;14.45;7.63;;;17.40;99.90;;;;;;5011262;28;20443;-68
2022/05/09 05:47:11;;;;;;;17.15;7.13;;;17.50;99.90;;;;;;5013728;28;20049;-68
2022/05/09 05:49:39;;;;;;;13.60;6.57;;;17.80;99.90;;;;;;5016623;28;20121;-67
2022/05/09 05:52:06;;;;;;;13.82;6.63;;;18.00;99.90;;;;;;5014990;28;20476;-67
2022/05/09 05:54:35;;;;;;;15.70;7.13;;;18.20;99.90;;;;;;5010081;28;20044;-67
2022/05/09 05:57:01;;;;;;;10.27;5.45;;;17.80;99.90;;;;;;5016303;28;20121;-68
2022/05/09 05:59:28;;;;;;;11.13;6.47;;;18.00;99.90;;;;;;5014205;28;20049;-68
2022/05/09 06:01:59;;;;;;;11.07;6.35;;;18.10;98.40;;;;;;5016096;28;20034;-68
2022/05/09 06:04:29;;;;;;;11.93;6.38;;;18.40;98.70;;;;;;5016811;28;20064;-67
2022/05/09 06:06:55;;;;;;;13.90;6.63;;;18.50;97.90;;;;;;5014610;28;20464;-67
2022/05/09 06:09:20;;;;;;;14.75;6.55;;;18.60;95.50;;;;;;5014971;28;20034;-66
2022/05/09 06:11:46;;;;;;;12.25;6.25;;;18.70;99.90;;;;;;5015149;28;20026;-64
2022/05/09 06:14:12;;;;;;;11.93;5.93;;;18.70;99.90;;;;;;5014322;28;20399;-64
2022/05/09 06:16:38;;;;;;;20.65;7.00;;;18.80;99.90;;;;;;5014582;28;20049;-65
2022/05/09 06:19:04;;;;;;;16.85;6.28;;;18.90;95.30;;;;;;5015260;28;20112;-68
2022/05/09 06:21:33;;;;;;;9.88;6.28;;;18.80;99.90;;;;;;5013158;28;20532;-64
2022/05/09 06:24:00;;;;;;;17.85;7.07;;;19.10;99.90;;;;;;5014365;28;20046;-63
2022/05/09 06:26:27;;;;;;;14.43;5.85;;;19.10;99.90;;;;;;5014200;28;20018;-67
2022/05/09 06:28:53;;;;;;;11.93;5.97;;;19.50;98.00;;;;;;5013822;28;20424;-67
2022/05/09 06:31:19;;;;;;;11.85;6.47;;;19.40;98.60;;;;;;5014333;28;20179;-67
2022/05/09 06:33:45;;;;;;;14.50;5.80;;;19.50;98.20;;;;;;5013909;28;20030;-68
2022/05/09 06:36:11;;;;;;;12.70;6.05;;;19.60;96.40;;;;;;5014480;28;20499;-66
2022/05/09 06:38:37;;;;;;;11.38;5.68;;;19.70;94.60;;;;;;5014408;28;20038;-68
2022/05/09 06:41:03;;;;;;;10.70;5.72;;;19.70;95.80;;;;;;5014032;28;20028;-68
2022/05/09 06:43:30;;;;;;;13.68;5.38;;;19.80;93.30;;;;;;5013743;28;20514;-66
2022/05/09 06:45:57;;;;;;;13.73;6.30;;;20.20;94.60;;;;;;5014613;28;20083;-67
2022/05/09 06:48:22;;;;;;;14.55;6.25;;;20.20;95.40;;;;;;5014176;28;20084;-68
2022/05/09 06:50:49;;;;;;;12.27;5.82;;;20.00;96.40;;;;;;5015007;28;20026;-68
2022/05/09 06:53:15;;;;;;;13.40;5.30;;;20.30;93.60;;;;;;5013745;28;20100;-69
2022/05/09 06:55:41;;;;;;;11.05;4.05;;;20.40;91.70;;;;;;5014031;28;20468;-68
2022/05/09 06:58:13;;;;;;;10.65;5.07;;;20.00;91.20;;;;;;5012587;28;20037;-66
2022/05/09 07:00:39;;;;;;;10.10;4.50;;;20.20;91.20;;;;;;5012856;28;20068;-64
2022/05/09 07:03:06;;;;;;;11.27;5.38;;;20.30;86.60;;;;;;5013127;28;20439;-67
2022/05/09 07:05:32;;;;;;;7.53;4.72;;;20.40;90.10;;;;;;5012879;28;20033;-68
2022/05/09 07:07:58;;;;;;;12.40;5.70;;;20.60;86.80;;;;;;5013446;28;20539;-68
2022/05/09 07:10:27;;;;;;;11.15;4.85;;;20.70;90.80;;;;;;5013220;28;20033;-69
2022/05/09 07:12:55;;;;;;;13.95;5.22;;;20.70;91.50;;;;;;5014147;28;20030;-65
2022/05/09 07:15:27;;;;;;;14.30;4.60;;;20.80;86.70;;;;;;5013512;28;20033;-68
2022/05/09 07:17:53;;;;;;;11.90;5.40;;;20.90;90.20;;;;;;5012930;28;20080;-64
2022/05/09 07:20:21;;;;;;;14.20;5.53;;;21.10;88.20;;;;;;5014960;28;20036;-68
2022/05/09 07:22:56;;;;;;;12.35;5.10;;;21.30;87.10;;;;;;5012548;28;20034;-69
2022/05/09 07:25:23;;;;;;;11.18;4.85;;;21.40;88.50;;;;;;5013378;28;20033;-67
2022/05/09 07:27:49;;;;;;;9.07;4.60;;;21.10;86.10;;;;;;5012884;28;20081;-69
2022/05/09 07:30:18;;;;;;;10.07;4.32;;;21.40;81.90;;;;;;5013584;28;20034;-69
2022/05/09 07:32:45;;;;;;;11.63;4.53;;;21.40;78.70;;;;;;5018368;28;20085;-69
2022/05/09 07:35:14;;;;;;;7.03;4.28;;;21.50;77.70;;;;;;5012829;28;20109;-68
2022/05/09 07:37:40;;;;;;;10.82;4.78;;;21.60;78.40;;;;;;5011578;28;20077;-69
2022/05/09 07:40:10;;;;;;;11.35;4.80;;;22.00;81.50;;;;;;5011770;28;20036;-69
2022/05/09 07:42:37;;;;;;;10.18;4.45;;;22.00;79.40;;;;;;5013102;28;20037;-69
2022/05/09 07:45:04;;;;;;;6.97;4.45;;;22.50;78.60;;;;;;5013895;28;20037;-68
2022/05/09 07:47:30;;;;;;;8.68;4.07;;;22.40;70.70;;;;;;5012790;28;20078;-67
2022/05/09 07:49:56;;;;;;;7.85;4.40;;;21.90;68.80;;;;;;5013617;28;20026;-69
2022/05/09 07:52:23;;;;;;;6.05;3.63;;;21.80;69.10;;;;;;5013540;28;20029;-68
2022/05/09 07:54:49;;;;;;;8.90;4.20;;;21.80;70.00;;;;;;5012542;28;20037;-68
2022/05/09 07:57:15;;;;;;;6.78;3.78;;;21.50;70.70;;;;;;5014659;28;20018;-69
2022/05/09 07:59:42;;;;;;;8.13;4.32;;;21.80;71.00;;;;;;5013010;28;20030;-68
2022/05/09 08:02:08;;;;;;;19.05;4.30;;;21.90;72.40;;;;;;5012913;28;20503;-69
2022/05/09 08:04:36;;;;;;;6.68;3.53;;;22.30;76.00;;;;;;5015297;28;20038;-68
2022/05/09 08:07:06;;;;;;;6.18;3.97;;;22.20;68.20;;;;;;5001823;28;20081;-71
2022/05/09 08:09:32;;;;;;;11.70;3.47;;;22.20;69.10;;;;;;4996574;28;20030;-69
2022/05/09 08:11:58;;;;;;;5.35;3.13;;;22.30;66.80;;;;;;5012361;28;20464;-68
2022/05/09 08:14:25;;;;;;;12.73;4.25;;;22.20;64.80;;;;;;5012782;28;20478;-69
2022/05/09 08:16:51;;;;;;;6.88;3.70;;;22.00;67.10;;;;;;5013301;28;20523;-68
2022/05/09 08:19:18;;;;;;;8.15;4.03;;;22.40;70.30;;;;;;5010533;28;20032;-69
2022/05/09 08:21:50;;;;;;;10.32;4.20;;;22.30;68.40;;;;;;5013535;28;20056;-69
2022/05/09 08:24:17;;;;;;;6.28;3.35;;;22.50;69.20;;;;;;5006004;28;20037;-67
2022/05/09 08:26:43;;;;;;;8.40;4.03;;;22.80;66.60;;;;;;5016070;28;20033;-69
2022/05/09 08:29:10;;;;;;;10.20;4.10;;;22.90;67.70;;;;;;5016880;28;20029;-68
2022/05/09 08:31:38;;;;;;;8.15;4.05;;;23.10;68.40;;;;;;5014822;28;20049;-68
2022/05/09 08:34:05;;;;;;;7.35;3.35;;;22.90;65.10;;;;;;5007784;28;20022;-68
2022/05/09 08:36:46;;;;;;;10.32;4.05;;;23.00;65.50;;;;;;5012001;28;20129;-67
2022/05/09 08:39:16;;;;;;;6.53;3.65;;;23.30;66.20;;;;;;5020136;28;20080;-69
2022/05/09 08:41:48;;;;;;;9.45;4.10;;;23.30;66.10;;;;;;5012344;28;20044;-68
2022/05/09 08:44:29;;;;;;;10.07;4.40;;;23.30;65.90;;;;;;5011986;28;20041;-68
2022/05/09 08:47:22;;;;;;;10.73;3.70;;;23.10;66.40;;;;;;5011058;28;20100;-69
2022/05/09 08:50:08;;;;;;;7.40;3.37;;;23.30;65.80;;;;;;5011631;28;20030;-68
2022/05/09 08:52:44;;;;;;;6.60;3.58;;;22.90;65.50;;;;;;5011532;28;20322;-66
2022/05/09 08:55:12;;;;;;;10.02;4.10;;;23.00;64.20;;;;;;4998362;28;20029;-69
2022/05/09 08:57:38;;;;;;;5.25;3.45;;;23.10;63.80;;;;;;5011642;28;20026;-69
2022/05/09 09:00:09;;;;;;;10.98;4.50;;;23.20;66.20;;;;;;5011446;28;20041;-69
2022/05/09 09:03:12;;;;;;;6.65;3.42;;;22.90;65.50;;;;;;5011768;28;20054;-68
2022/05/09 09:05:41;;;;;;;6.90;3.10;;;23.00;67.20;;;;;;5007340;28;20046;-69
2022/05/09 09:08:13;;;;;;;10.38;3.85;;;23.30;66.40;;;;;;4989385;28;20071;-69
2022/05/09 09:10:52;;;;;;;8.02;3.30;;;23.60;64.80;;;;;;5006916;28;20038;-69
2022/05/09 09:13:47;;;;;;;10.18;3.50;;;23.70;63.20;;;;;;5009377;28;20080;-68
2022/05/09 09:16:16;;;;;;;6.30;2.90;;;23.20;59.30;;;;;;4984028;28;20055;-69
2022/05/09 09:19:02;;;;;;;6.05;3.13;;;23.40;57.40;;;;;;4989390;28;20037;-69
2022/05/09 09:21:39;;;;;;;5.75;3.08;;;23.50;58.90;;;;;;4992745;28;20068;-68
2022/05/09 09:24:10;;;;;;;6.03;3.55;;;23.60;58.30;;;;;;5008839;28;20045;-68
2022/05/09 09:26:48;;;;;;;5.85;2.80;;;23.70;60.00;;;;;;5006954;28;20110;-67
2022/05/09 09:29:34;;;;;;;7.72;3.55;;;23.80;59.10;;;;;;5009179;28;20077;-68
2022/05/09 09:32:08;;;;;;;11.15;3.03;;;23.90;58.50;;;;;;5009019;28;20034;-68
2022/05/09 09:34:50;;;;;;;5.35;2.55;;;24.10;57.20;;;;;;4993708;28;20030;-68
2022/05/09 09:37:20;;;;;;;5.65;2.40;;;23.80;51.50;;;;;;4990427;28;20067;-68
2022/05/09 09:39:45;;;;;;;7.05;2.45;;;23.80;48.90;;;;;;5005833;28;20032;-69
2022/05/09 09:42:12;;;;;;;8.35;3.15;;;23.70;50.30;;;;;;4994036;28;20124;-68
2022/05/09 09:44:44;;;;;;;5.43;2.50;;;23.70;48.30;;;;;;5010946;28;20124;-68
2022/05/09 09:47:09;;;;;;;7.57;2.73;;;23.70;50.20;;;;;;5011225;28;20039;-67
2022/05/09 09:49:43;;;;;;;5.75;2.55;;;23.70;50.40;;;;;;5011222;28;20040;-69
2022/05/09 09:52:22;;;;;;;7.25;3.53;;;23.90;54.10;;;;;;5011026;28;20605;-67
2022/05/09 09:55:06;;;;;;;8.07;3.13;;;23.70;51.90;;;;;;5021038;28;20474;-69
2022/05/09 09:57:38;;;;;;;6.82;2.97;;;23.50;52.00;;;;;;5010593;28;20037;-68
2022/05/09 10:00:31;;;;;;;7.07;3.00;;;23.30;53.70;;;;;;5011328;28;20042;-68
2022/05/09 10:03:15;;;;;;;6.80;2.72;;;23.70;53.10;;;;;;5010655;28;20034;-68
2022/05/09 10:05:43;;;;;;;6.97;3.13;;;23.60;54.40;;;;;;5002264;28;20072;-68
2022/05/09 10:08:21;;;;;;;8.30;3.03;;;23.20;52.90;;;;;;5010806;28;20061;-68
2022/05/09 10:11:20;;;;;;;6.85;3.05;;;23.80;54.80;;;;;;5010818;28;20096;-68
2022/05/09 10:13:53;;;;;;;11.55;2.90;;;24.10;54.00;;;;;;5010931;28;20112;-68
2022/05/09 10:16:30;;;;;;;9.02;3.30;;;24.20;57.40;;;;;;5010578;28;20026;-68
2022/05/09 10:18:59;;;;;;;13.05;3.15;;;24.20;54.90;;;;;;5010910;28;20167;-69
2022/05/09 10:24:48;;;;;;;12.27;2.78;;;24.60;56.00;;;;;;5010803;28;20073;-69
2022/05/09 10:27:23;;;;;;;8.55;2.78;;;24.50;57.30;;;;;;5010103;28;20088;-67
2022/05/09 10:30:15;;;;;;;7.53;3.38;;;24.50;55.40;;;;;;5010716;28;20041;-69
2022/05/09 10:33:01;;;;;;;7.03;2.95;;;24.60;54.10;;;;;;4971171;28;20039;-69
2022/05/09 10:35:43;;;;;;;7.65;3.17;;;24.50;53.30;;;;;;4972817;28;20471;-69
2022/05/09 10:38:14;;;;;;;;;;;24.60;51.80;;;;;;4973499;28;20047;-69
2022/05/09 10:40:48;;;;;;;7.43;2.80;;;24.60;51.50;;;;;;4972363;28;19909;-66
2022/05/09 10:43:23;;;;;;;6.00;3.13;;;24.50;52.10;;;;;;4972209;28;20043;-68
2022/05/09 10:45:50;;;;;;;5.95;2.50;;;24.30;53.10;;;;;;4972514;28;20210;-68
2022/05/09 10:48:24;;;;;;;7.55;2.75;;;24.30;52.90;;;;;;4972923;28;20037;-69
2022/05/09 10:51:01;;;;;;;7.78;3.45;;;24.40;54.00;;;;;;4971865;28;20049;-66
2022/05/09 10:53:53;;;;;;;7.38;3.10;;;24.60;56.30;;;;;;4972045;28;20485;-68
2022/05/09 10:56:21;;;;;;;5.15;2.85;;;24.80;55.90;;;;;;4972407;28;20078;-68
2022/05/09 10:58:50;;;;;;;8.88;3.47;;;25.00;54.50;;;;;;4971981;28;20039;-69
2022/05/09 11:01:34;;;;;;;7.70;3.22;;;25.00;52.30;;;;;;4972431;28;20523;-69
2022/05/09 11:04:00;;;;;;;8.65;3.20;;;25.30;54.70;;;;;;4972023;28;20056;-68
2022/05/09 11:06:32;;;;;;;6.22;2.67;;;25.20;50.90;;;;;;4972392;28;20382;-69
2022/05/09 11:08:57;;;;;;;3.67;2.20;;;25.20;51.80;;;;;;4980361;28;20093;-69
2022/05/09 11:12:01;;;;;;;9.70;3.20;;;25.20;49.70;;;;;;5013216;28;20104;-69
2022/05/09 11:14:33;;;;;;;4.03;2.85;;;25.20;49.70;;;;;;5013390;28;20037;-67
2022/05/09 11:17:34;;;;;;;5.28;2.88;;;25.30;50.10;;;;;;5014283;28;20194;-67
2022/05/09 11:20:01;;;;;;;8.80;2.90;;;25.10;52.70;;;;;;5017422;28;20022;-65
2022/05/09 11:22:38;;;;;;;9.63;3.42;;;25.30;51.60;;;;;;5013152;28;20345;-68
2022/05/09 11:25:32;;;;;;;6.22;2.65;;;25.40;50.20;;;;;;5013332;28;20124;-67
2022/05/09 11:28:25;;;;;;;9.07;3.42;;;25.40;50.60;;;;;;5013420;28;20584;-65
2022/05/09 11:31:21;;;;;;;6.97;2.65;;;25.50;50.40;;;;;;5013491;28;20061;-66
2022/05/09 11:34:07;;;;;;;7.30;2.88;;;25.30;51.40;;;;;;5013655;28;20113;-69
2022/05/09 11:37:22;;;;;;;6.32;2.67;;;25.20;50.00;;;;;;5012981;28;20025;-64
2022/05/09 11:40:03;;;;;;;5.00;2.53;;;25.20;50.20;;;;;;5010866;28;20132;-68
2022/05/09 11:45:37;;;;;;;4.75;2.13;;;25.50;48.40;;;;;;5009166;28;20042;-67
2022/05/09 11:48:56;;;;;;;4.25;2.50;;;25.30;48.10;;;;;;5014631;28;20403;-65
2022/05/09 11:51:34;;;;;;;4.07;2.33;;;25.20;48.70;;;;;;4932750;29;20085;-68
2022/05/09 11:54:06;;;;;;;8.52;2.88;;;25.10;49.40;;;;;;4933309;29;20039;-65
2022/05/09 11:56:33;;;;;;;7.95;2.88;;;25.10;49.90;;;;;;4933331;29;20047;-68
2022/05/09 11:59:00;;;;;;;5.85;2.40;;;25.30;51.30;;;;;;4932775;29;20073;-68
2022/05/09 12:01:52;;;;;;;6.22;3.00;;;25.20;48.60;;;;;;4933428;29;20372;-68
2022/05/09 12:04:31;;;;;;;4.03;2.67;;;25.50;52.70;;;;;;4895301;29;20057;-70
2022/05/09 12:06:57;;;;;;;6.95;2.80;;;25.40;49.70;;;;;;4900533;29;20041;-69
2022/05/09 12:09:53;;;;;;;4.05;2.20;;;25.40;49.70;;;;;;4907644;29;20566;-68
2022/05/09 12:12:37;;;;;;;6.85;2.72;;;25.20;51.20;;;;;;4894925;29;20052;-68
2022/05/09 12:15:23;;;;;;;4.10;2.10;;;25.20;49.60;;;;;;4912763;29;20043;-67
2022/05/09 12:17:57;;;;;;;4.72;2.50;;;25.30;49.10;;;;;;4875890;29;20423;-67
2022/05/09 12:20:27;;;;;;;9.13;2.90;;;25.30;49.20;;;;;;4876063;29;20183;-69
2022/05/09 12:22:54;;;;;;;3.72;2.22;;;25.40;51.40;;;;;;4875714;29;20135;-69
2022/05/09 12:28:06;;;;;;;4.15;2.45;;;25.70;48.80;;;;;;4894645;29;20055;-68
2022/05/09 12:30:58;;;;;;;6.43;2.05;;;25.60;49.60;;;;;;4895100;29;20120;-67
2022/05/09 12:33:38;;;;;;;4.90;2.50;;;25.30;50.20;;;;;;4894196;29;20479;-67
2022/05/09 12:36:15;;;;;;;3.95;2.30;;;25.30;49.70;;;;;;4906318;29;20380;-64
2022/05/09 12:38:44;;;;;;;3.70;2.42;;;25.20;49.10;;;;;;4913298;29;20028;-69
2022/05/09 12:41:14;;;;;;;10.55;3.13;;;25.40;52.80;;;;;;4939829;28;20082;-69
2022/05/09 12:43:50;;;;;;;5.25;2.53;;;25.40;50.00;;;;;;4966060;28;20059;-69
2022/05/09 12:46:27;;;;;;;9.05;2.60;;;25.10;49.80;;;;;;4970729;28;20409;-69
2022/05/09 12:48:58;;;;;;;4.75;2.55;;;25.40;52.60;;;;;;4970608;28;20596;-67
2022/05/09 12:51:26;;;;;;;4.05;2.28;;;25.40;50.20;;;;;;4970530;28;20042;-69
2022/05/09 12:53:52;;;;;;;6.28;2.75;;;25.20;49.80;;;;;;4965365;28;20035;-68
2022/05/09 12:56:25;;;;;;;11.00;2.65;;;25.20;49.40;;;;;;5012348;28;20057;-68
2022/05/09 12:59:11;;;;;;;6.18;2.63;;;25.40;48.70;;;;;;5011289;28;20061;-65
2022/05/09 13:01:43;;;;;;;6.90;2.50;;;25.50;51.30;;;;;;5002705;28;20037;-64
2022/05/09 13:04:26;;;;;;;6.22;3.05;;;25.50;50.70;;;;;;5011752;28;20100;-69
2022/05/09 13:07:05;;;;;;;8.15;2.72;;;25.50;49.10;;;;;;4991485;28;20035;-68
2022/05/09 13:09:35;;;;;;;6.03;2.05;;;25.60;49.80;;;;;;4990793;28;20061;-68
2022/05/09 13:12:13;;;;;;;4.95;2.50;;;25.80;52.10;;;;;;4991903;28;20389;-64
2022/05/09 13:14:46;;;;;;;6.63;3.05;;;25.90;51.30;;;;;;4991930;28;20085;-69
2022/05/09 13:17:29;;;;;;;6.97;2.63;;;25.70;50.00;;;;;;5008636;28;20038;-64